Terminal Aerodrome Forecast
Issued by NWS Riverton, WY

Home | Current Version | Previous Version | Text Only | Print | Product List | Glossary On
Versions: 1 2 3 4 5 6 7 8 9 10 11 12
000
FTUS45 KRIW 192300
TAFRIW
TAF
KRIW 192322Z 2000/2024 06008KT P6SM SCT060 BKN080
     FM200900 VRB05KT P6SM FEW080=

USA.gov is the U.S. government's official web portal to all federal, state and local government web resources and services.